Time;durP1;ratioP1;P1;durP2;ratioP2;P2;SDS_P1;SDS_P2;PMS_P1;PMS_P2;Temp;Humidity;BMP_temperature;BMP_pressure;BME280_temperature;BME280_humidity;BME280_pressure;Samples;Min_cycle;Max_cycle;Signal;HPM_P1;HPM_P2
2022/01/15 00:00:54;;;;;;;87.57;33.33;;;;;;;5.33;91.78;103281.28;7390250;19;20010;-59
2022/01/15 00:03:23;;;;;;;87.38;33.55;;;;;;;5.33;91.79;103277.78;7392572;19;20026;-60
2022/01/15 00:05:51;;;;;;;82.35;31.10;;;;;;;5.30;91.65;103273.44;7390951;19;20015;-61
2022/01/15 00:08:20;;;;;;;97.88;36.13;;;;;;;5.30;91.42;103276.03;7391768;19;20126;-61
2022/01/15 00:10:49;;;;;;;85.03;34.17;;;;;;;5.26;91.41;103269.03;7390360;19;20021;-63
2022/01/15 00:13:26;;;;;;;79.35;32.17;;;;;;;5.23;91.57;103260.28;7394281;19;20115;-61
2022/01/15 00:16:06;;;;;;;80.07;32.58;;;;;;;5.20;91.88;103266.31;7400272;19;20019;-63
2022/01/15 00:18:48;;;;;;;81.75;30.80;;;;;;;5.16;91.93;103256.72;7399078;19;20074;-64
2022/01/15 00:21:17;;;;;;;75.00;29.90;;;;;;;5.19;92.25;103254.19;7398844;19;20010;-63
2022/01/15 00:23:46;;;;;;;94.82;33.08;;;;;;;5.25;92.15;103248.22;7394670;19;20007;-62
2022/01/15 00:26:15;;;;;;;82.60;31.58;;;;;;;5.21;92.07;103239.47;7390886;19;20501;-61
2022/01/15 00:28:44;;;;;;;76.13;29.92;;;;;;;5.23;92.17;103243.00;7391344;19;20018;-63
2022/01/15 00:31:15;;;;;;;73.65;29.50;;;;;;;5.23;92.05;103236.88;7388582;19;20015;-61
2022/01/15 00:33:44;;;;;;;82.65;31.67;;;;;;;5.22;92.13;103243.81;7388753;19;20024;-63
2022/01/15 00:36:13;;;;;;;81.75;31.92;;;;;;;5.22;92.35;103246.44;7390347;19;20006;-61
2022/01/15 00:38:42;;;;;;;84.38;33.38;;;;;;;5.20;92.33;103238.59;7390631;19;20033;-63
2022/01/15 00:41:10;;;;;;;90.38;32.35;;;;;;;5.22;92.07;103230.84;7387979;19;20015;-63
2022/01/15 00:43:40;;;;;;;83.30;30.92;;;;;;;5.19;92.04;103234.25;7388353;19;20355;-62
2022/01/15 00:46:09;;;;;;;85.82;31.92;;;;;;;5.17;91.73;103233.34;7390234;19;20043;-59
2022/01/15 00:48:40;;;;;;;79.05;31.23;;;;;;;5.15;91.63;103227.25;7390506;19;20026;-63
2022/01/15 00:51:09;;;;;;;78.35;29.00;;;;;;;5.15;91.81;103226.38;7388810;19;20033;-62
2022/01/15 00:53:38;;;;;;;78.82;30.50;;;;;;;5.11;91.81;103221.97;7388637;19;20014;-63
2022/01/15 00:56:07;;;;;;;85.85;32.22;;;;;;;5.07;92.07;103225.34;7387655;19;20019;-61
2022/01/15 00:58:36;;;;;;;88.70;31.90;;;;;;;5.09;92.16;103218.47;7390224;19;20020;-61
2022/01/15 01:01:05;;;;;;;86.95;30.90;;;;;;;5.11;92.18;103221.97;7388246;19;20017;-61
2022/01/15 01:03:34;;;;;;;87.13;31.85;;;;;;;5.10;92.12;103221.09;7390408;19;20037;-62
2022/01/15 01:06:05;;;;;;;88.55;31.50;;;;;;;5.11;92.04;103214.19;7388117;19;20047;-63
2022/01/15 01:08:34;;;;;;;84.90;32.38;;;;;;;5.11;92.29;103219.38;7389520;19;20020;-62
2022/01/15 01:11:10;;;;;;;96.93;32.70;;;;;;;5.11;92.04;103214.19;7387726;19;20014;-63
2022/01/15 01:20:04;;;;;;;79.18;29.55;;;;;;;5.04;92.13;103210.59;7388950;19;20014;-64
2022/01/15 01:24:48;;;;;;;69.32;26.27;;;;;;;5.00;92.32;103199.28;7387712;19;20483;-63
2022/01/15 01:27:23;;;;;;;66.63;24.90;;;;;;;5.00;92.26;103200.97;7389370;19;20029;-61
2022/01/15 01:30:07;;;;;;;67.65;25.40;;;;;;;4.99;92.21;103200.13;7387697;19;20019;-59
2022/01/15 01:32:51;;;;;;;62.38;24.95;;;;;;;5.01;91.88;103190.66;7388482;19;20034;-61
2022/01/15 01:35:32;;;;;;;65.95;25.88;;;;;;;5.00;91.87;103188.00;7389336;19;20460;-61
2022/01/15 01:38:12;;;;;;;70.43;25.70;;;;;;;4.99;91.80;103199.25;7387875;19;20041;-60
2022/01/15 01:40:44;;;;;;;68.22;25.25;;;;;;;5.00;92.02;103193.19;7388254;19;20026;-63
2022/01/15 01:48:54;;;;;;;69.60;26.55;;;;;;;4.90;91.95;103188.69;7386771;19;20330;-59
2022/01/15 01:51:27;;;;;;;73.68;26.83;;;;;;;4.90;91.86;103189.56;7386838;19;20013;-57
2022/01/15 01:53:58;;;;;;;;;;;;;;;4.92;91.99;103197.41;7389969;19;20030;-60
2022/01/15 01:56:27;;;;;;;71.90;24.70;;;;;;;4.90;91.82;103193.88;7387395;19;19907;-60
2022/01/15 01:58:56;;;;;;;59.78;22.23;;;;;;;4.90;91.62;103192.19;7388674;19;20022;-62
2022/01/15 02:01:25;;;;;;;55.60;21.05;;;;;;;4.87;91.63;103176.50;7389183;19;20017;-60
2022/01/15 02:03:54;;;;;;;60.97;22.73;;;;;;;4.84;91.98;103185.16;7388115;19;20011;-60
2022/01/15 02:06:23;;;;;;;58.20;21.02;;;;;;;4.85;91.61;103179.09;7387236;19;20006;-62
2022/01/15 02:08:54;;;;;;;55.53;22.05;;;;;;;4.80;91.29;103188.53;7386079;19;20038;-63
2022/01/15 02:11:26;;;;;;;53.22;21.00;;;;;;;4.79;91.25;103186.78;7386854;19;20026;-62
2022/01/15 02:13:55;;;;;;;56.40;20.92;;;;;;;4.80;91.45;103190.22;7388831;19;20074;-64
2022/01/15 02:16:24;;;;;;;46.03;17.40;;;;;;;4.71;91.34;103169.31;7387484;19;20324;-63
2022/01/15 02:18:55;;;;;;;43.60;17.23;;;;;;;4.70;91.21;103184.03;7387450;19;20018;-65
2022/01/15 02:24:08;;;;;;;44.42;18.15;;;;;;;4.75;91.65;103177.16;7387476;19;20034;-61
2022/01/15 02:26:38;;;;;;;51.22;19.52;;;;;;;4.71;91.75;103164.97;7386928;19;20078;-64
2022/01/15 02:29:08;;;;;;;51.75;20.13;;;;;;;4.74;91.50;103157.22;7387846;19;20030;-65
2022/01/15 02:31:38;;;;;;;53.63;20.20;;;;;;;4.75;91.27;103164.19;7389007;19;20020;-62
2022/01/15 02:34:08;;;;;;;53.50;19.88;;;;;;;4.79;91.14;103166.00;7386709;19;20087;-64
2022/01/15 02:36:40;;;;;;;47.95;18.83;;;;;;;4.82;91.04;103171.22;7385555;19;20446;-63
2022/01/15 02:39:09;;;;;;;57.08;21.38;;;;;;;4.77;90.56;103151.22;7387410;19;20028;-61
2022/01/15 02:41:41;;;;;;;47.42;18.80;;;;;;;4.76;90.62;103144.31;7388102;19;20333;-60
2022/01/15 02:44:16;;;;;;;53.40;20.13;;;;;;;4.69;90.47;103153.69;7386855;19;20025;-63
2022/01/15 02:49:30;;;;;;;44.92;17.80;;;;;;;4.65;90.66;103144.97;7384415;19;20014;-64
2022/01/15 02:52:01;;;;;;;41.80;17.42;;;;;;;4.65;90.85;103144.09;7386983;19;20448;-64
2022/01/15 02:54:30;;;;;;;42.30;17.40;;;;;;;4.66;90.89;103136.34;7383571;19;20015;-63
2022/01/15 02:57:04;;;;;;;40.38;16.35;;;;;;;4.66;90.88;103135.47;7385172;19;20014;-64
2022/01/15 02:59:33;;;;;;;37.22;16.25;;;;;;;4.70;90.54;103132.09;7385313;19;20018;-64
2022/01/15 03:02:02;;;;;;;35.40;15.48;;;;;;;4.73;90.42;103124.34;7386472;19;20033;-64
2022/01/15 03:04:31;;;;;;;36.00;15.15;;;;;;;4.73;90.07;103128.63;7386116;19;20138;-64
2022/01/15 03:07:03;;;;;;;34.25;15.15;;;;;;;4.76;90.03;103126.97;7383980;19;20015;-64
2022/01/15 03:09:32;;;;;;;36.15;16.15;;;;;;;4.74;89.92;103118.28;7386971;19;20010;-65
2022/01/15 03:12:02;;;;;;;35.97;15.52;;;;;;;4.76;89.96;103110.53;7386352;19;20011;-64
2022/01/15 03:14:32;;;;;;;38.28;15.90;;;;;;;4.69;90.09;103099.16;7387046;19;20105;-65
2022/01/15 03:17:01;;;;;;;40.42;16.73;;;;;;;4.72;90.13;103107.00;7389150;19;20030;-65
2022/01/15 03:19:29;;;;;;;36.58;16.17;;;;;;;4.68;90.04;103106.09;7393978;19;20122;-65
2022/01/15 03:21:58;;;;;;;37.78;15.13;;;;;;;4.73;89.88;103090.56;7392833;19;20021;-64
2022/01/15 03:24:30;;;;;;;35.05;15.00;;;;;;;4.68;89.82;103084.41;7394140;19;20025;-64
2022/01/15 03:26:58;;;;;;;41.72;16.90;;;;;;;4.69;89.89;103078.38;7393231;19;20046;-62
2022/01/15 03:29:27;;;;;;;39.95;16.90;;;;;;;4.68;89.73;103079.22;7394112;19;20482;-64
2022/01/15 03:31:56;;;;;;;43.95;17.23;;;;;;;4.72;89.87;103072.38;7394459;19;20021;-66
2022/01/15 03:34:25;;;;;;;35.35;16.75;;;;;;;4.73;90.03;103075.00;7391775;19;20010;-66
2022/01/15 03:36:53;;;;;;;47.30;18.52;;;;;;;4.70;90.01;103069.75;7390735;19;20036;-65
2022/01/15 03:39:22;;;;;;;44.17;18.10;;;;;;;4.67;90.01;103067.06;7393659;19;20071;-66
2022/01/15 03:41:54;;;;;;;42.40;17.33;;;;;;;4.68;90.02;103061.03;7391993;19;20036;-66
2022/01/15 03:44:22;;;;;;;44.83;18.23;;;;;;;4.63;89.97;103062.72;7393598;19;20016;-67
2022/01/15 03:46:51;;;;;;;42.45;18.15;;;;;;;4.60;90.07;103066.13;7392288;19;20015;-64
2022/01/15 03:49:20;;;;;;;37.45;14.80;;;;;;;4.57;90.16;103068.66;7392255;19;20040;-64
2022/01/15 03:51:49;;;;;;;35.55;15.25;;;;;;;4.53;90.07;103060.78;7389935;19;20628;-64
2022/01/15 03:54:18;;;;;;;37.08;15.15;;;;;;;4.48;90.04;103063.31;7392274;19;20107;-63
2022/01/15 03:56:47;;;;;;;34.15;15.45;;;;;;;4.43;90.24;103055.44;7392574;19;20360;-64
2022/01/15 03:59:19;;;;;;;35.80;14.95;;;;;;;4.46;90.38;103065.88;7391793;19;20483;-63
2022/01/15 04:01:49;;;;;;;43.38;15.00;;;;;;;4.36;90.43;103066.56;7390072;19;20074;-63
2022/01/15 04:04:17;;;;;;;31.45;14.10;;;;;;;4.34;90.54;103068.25;7390567;19;20014;-64
2022/01/15 04:06:46;;;;;;;30.13;13.93;;;;;;;4.30;90.57;103067.31;7391845;19;20032;-65
2022/01/15 04:09:17;;;;;;;30.38;14.05;;;;;;;4.34;90.54;103060.44;7391529;19;20021;-64
2022/01/15 04:11:47;;;;;;;37.55;16.13;;;;;;;4.35;90.48;103069.13;7392133;19;20022;-64
2022/01/15 04:14:18;;;;;;;30.08;14.40;;;;;;;4.31;90.48;103060.41;7390140;19;20011;-65
2022/01/15 04:16:47;;;;;;;37.90;16.88;;;;;;;4.33;90.46;103056.13;7391093;19;20525;-64
2022/01/15 04:19:16;;;;;;;28.77;14.32;;;;;;;4.34;90.64;103042.28;7391503;19;20328;-64
2022/01/15 04:21:45;;;;;;;31.90;15.25;;;;;;;4.32;90.74;103056.97;7391830;19;20022;-64
2022/01/15 04:24:13;;;;;;;30.70;15.75;;;;;;;4.31;90.63;103050.91;7389875;19;20014;-64
2022/01/15 04:26:42;;;;;;;33.25;16.20;;;;;;;4.33;90.92;103041.41;7390967;19;20026;-62
2022/01/15 04:29:11;;;;;;;32.20;16.33;;;;;;;4.39;90.82;103038.06;7388614;19;20020;-63
2022/01/15 04:31:49;;;;;;;30.85;15.70;;;;;;;4.43;90.71;103037.28;7391197;19;20728;-64
2022/01/15 04:34:18;;;;;;;32.83;17.40;;;;;;;4.44;90.46;103030.34;7392068;19;20452;-64
2022/01/15 04:36:49;;;;;;;35.22;18.70;;;;;;;4.41;90.51;103027.69;7390545;19;20109;-64
2022/01/15 04:39:18;;;;;;;34.00;18.40;;;;;;;4.46;90.65;103026.94;7390327;19;20352;-63
2022/01/15 04:41:47;;;;;;;30.83;17.45;;;;;;;4.49;90.60;103019.19;7391303;19;20349;-65
2022/01/15 04:44:16;;;;;;;33.72;17.95;;;;;;;4.51;90.62;103019.22;7389601;19;20010;-63
2022/01/15 04:46:47;;;;;;;39.03;19.77;;;;;;;4.53;90.51;103025.31;7389181;19;20511;-64
2022/01/15 04:49:16;;;;;;;39.13;20.75;;;;;;;4.57;90.66;103023.63;7391798;19;20485;-64
2022/01/15 04:51:45;;;;;;;38.20;20.88;;;;;;;4.60;90.62;103026.28;7391529;19;20025;-62
2022/01/15 04:54:14;;;;;;;35.92;19.70;;;;;;;4.63;90.41;103022.03;7390882;19;20003;-64
2022/01/15 04:56:43;;;;;;;38.33;20.23;;;;;;;4.60;90.14;103018.50;7390052;19;20013;-64
2022/01/15 04:59:12;;;;;;;40.28;20.55;;;;;;;4.61;89.95;103021.13;7389888;19;20018;-64
2022/01/15 05:01:41;;;;;;;37.08;20.20;;;;;;;4.62;90.07;103019.41;7390764;19;20011;-64
2022/01/15 05:04:12;;;;;;;40.15;21.00;;;;;;;4.58;89.93;103015.88;7390061;19;20492;-64
2022/01/15 05:06:41;;;;;;;43.17;23.33;;;;;;;4.53;89.90;103022.72;7391297;19;20026;-66
2022/01/15 05:09:10;;;;;;;40.55;22.15;;;;;;;4.53;90.03;103027.91;7391226;19;20364;-65
2022/01/15 05:11:48;;;;;;;50.80;25.08;;;;;;;4.53;90.36;103021.84;7392096;19;20499;-66
2022/01/15 05:14:20;;;;;;;47.30;23.50;;;;;;;4.49;90.17;103011.41;7391776;19;20010;-65
2022/01/15 05:16:48;;;;;;;52.60;25.30;;;;;;;4.49;90.13;103007.94;7390730;19;20021;-65
2022/01/15 05:19:20;;;;;;;49.55;24.67;;;;;;;4.44;90.23;103014.78;7389098;19;20030;-65
2022/01/15 05:21:49;;;;;;;49.88;23.33;;;;;;;4.35;90.51;103014.63;7390421;19;20011;-65
2022/01/15 05:24:18;;;;;;;54.78;24.80;;;;;;;4.28;90.66;103013.63;7390202;19;20010;-63
2022/01/15 05:26:46;;;;;;;51.75;24.15;;;;;;;4.22;90.88;102997.97;7390509;19;20360;-65
2022/01/15 05:29:15;;;;;;;48.35;23.00;;;;;;;4.21;91.28;103001.41;7390742;19;20018;-65
2022/01/15 05:31:44;;;;;;;46.40;22.02;;;;;;;4.28;91.63;103005.84;7390443;19;20022;-63
2022/01/15 05:34:13;;;;;;;49.60;24.00;;;;;;;4.30;91.62;103002.44;7388502;19;20011;-65
2022/01/15 05:36:44;;;;;;;50.03;23.45;;;;;;;4.24;91.49;102997.16;7389661;19;20053;-65
2022/01/15 05:39:13;;;;;;;54.55;24.98;;;;;;;4.28;91.44;102992.88;7389878;19;20350;-65
2022/01/15 05:41:42;;;;;;;48.83;23.63;;;;;;;4.31;91.56;102992.94;7390253;19;20010;-65
2022/01/15 05:44:11;;;;;;;57.08;24.95;;;;;;;4.26;91.78;103005.81;7388752;19;20448;-65
2022/01/15 05:46:40;;;;;;;53.13;24.00;;;;;;;4.17;91.96;102995.31;7388916;19;20467;-65
2022/01/15 05:49:09;;;;;;;59.33;24.67;;;;;;;4.21;92.04;102989.28;7389841;19;20014;-65
2022/01/15 05:51:37;;;;;;;58.20;24.92;;;;;;;4.20;92.13;102984.97;7388998;19;20189;-65
2022/01/15 05:54:11;;;;;;;51.78;23.35;;;;;;;4.20;92.16;102987.56;7387844;19;20117;-66
2022/01/15 05:56:41;;;;;;;60.25;24.67;;;;;;;4.25;92.35;102995.44;7388943;19;20082;-66
2022/01/15 05:59:10;;;;;;;51.88;23.33;;;;;;;4.15;92.28;102987.50;7388979;19;20015;-65
2022/01/15 06:01:40;;;;;;;48.95;22.88;;;;;;;4.23;92.38;102977.22;7387530;19;20479;-64
2022/01/15 06:04:09;;;;;;;57.20;24.60;;;;;;;4.27;92.42;102978.16;7386697;19;20036;-65
2022/01/15 06:06:38;;;;;;;51.10;24.08;;;;;;;4.27;92.33;102986.81;7387937;19;20018;-65
2022/01/15 06:09:09;;;;;;;45.95;21.02;;;;;;;4.22;92.41;102975.47;7389048;19;20030;-65
2022/01/15 06:11:40;;;;;;;58.10;24.70;;;;;;;4.20;92.26;102964.22;7388620;19;20037;-65
2022/01/15 06:14:08;;;;;;;44.00;20.80;;;;;;;4.23;92.28;102963.41;7387496;19;20467;-65
2022/01/15 06:16:37;;;;;;;45.97;21.52;;;;;;;4.27;92.31;102971.25;7388006;19;20500;-64
2022/01/15 06:19:06;;;;;;;45.00;20.88;;;;;;;4.35;92.57;102962.72;7386547;19;20033;-65
2022/01/15 06:21:35;;;;;;;49.08;21.30;;;;;;;4.32;92.21;102951.41;7388904;19;20014;-64
2022/01/15 06:24:04;;;;;;;44.97;20.45;;;;;;;4.38;92.34;102948.06;7387895;19;20025;-65
2022/01/15 06:26:35;;;;;;;45.50;21.05;;;;;;;4.40;92.18;102964.53;7388626;19;20336;-64
2022/01/15 06:29:04;;;;;;;45.05;20.35;;;;;;;4.33;92.27;102960.97;7388736;19;20024;-64
2022/01/15 06:31:33;;;;;;;51.33;22.05;;;;;;;4.30;92.15;102942.75;7386933;19;20014;-63
2022/01/15 06:34:03;;;;;;;47.53;21.02;;;;;;;4.30;92.14;102926.31;7388509;19;20074;-64
2022/01/15 06:36:31;;;;;;;44.50;21.40;;;;;;;4.32;92.00;102942.78;7388219;19;20333;-64
2022/01/15 06:39:00;;;;;;;55.80;23.38;;;;;;;4.33;92.00;102944.53;7388772;19;20019;-64
2022/01/15 06:41:29;;;;;;;73.70;25.70;;;;;;;4.21;92.30;102939.13;7386850;19;20034;-64
2022/01/15 06:44:00;;;;;;;51.33;23.20;;;;;;;4.19;92.48;102931.31;7388423;19;20020;-64
2022/01/15 06:46:29;;;;;;;55.70;25.50;;;;;;;4.15;92.66;102927.81;7386613;19;20010;-64
2022/01/15 06:48:58;;;;;;;114.50;29.88;;;;;;;4.12;92.62;102925.16;7388009;19;20010;-65
2022/01/15 06:51:27;;;;;;;63.60;27.42;;;;;;;4.16;92.75;102920.91;7388998;19;20020;-64
2022/01/15 06:53:55;;;;;;;92.50;28.15;;;;;;;4.04;93.11;102918.97;7392759;19;20028;-64
2022/01/15 06:56:24;;;;;;;62.97;25.67;;;;;;;3.99;93.26;102921.47;7394868;19;20021;-64
2022/01/15 06:58:53;;;;;;;53.38;24.15;;;;;;;3.99;93.71;102920.59;7395894;19;20015;-64
2022/01/15 07:01:25;;;;;;;59.53;25.02;;;;;;;4.04;93.56;102921.56;7392847;19;20014;-64
2022/01/15 07:03:54;;;;;;;72.03;28.25;;;;;;;4.10;93.64;102921.66;7399267;19;20014;-64
2022/01/15 07:06:23;;;;;;;75.68;25.77;;;;;;;4.11;93.74;102926.00;7395403;19;20026;-63
2022/01/15 07:08:51;;;;;;;53.00;24.50;;;;;;;4.13;93.69;102929.50;7392484;19;20018;-67
2022/01/15 07:11:20;;;;;;;60.83;26.52;;;;;;;4.18;93.80;102932.16;7392658;19;20010;-65
2022/01/15 07:13:49;;;;;;;94.85;27.67;;;;;;;4.21;93.58;102920.97;7395507;19;20022;-64
2022/01/15 07:16:18;;;;;;;56.97;25.77;;;;;;;4.25;93.58;102933.13;7394471;19;20345;-64
2022/01/15 07:18:49;;;;;;;80.30;27.92;;;;;;;4.13;93.44;102928.63;7394548;19;20476;-64
2022/01/15 07:21:18;;;;;;;78.30;29.42;;;;;;;4.13;93.51;102932.09;7392648;19;20017;-64
2022/01/15 07:23:47;;;;;;;104.90;29.90;;;;;;;4.13;93.36;102926.91;7395440;19;20025;-64
2022/01/15 07:26:16;;;;;;;67.35;28.05;;;;;;;4.14;93.46;102925.16;7395155;19;20011;-60
2022/01/15 07:28:44;;;;;;;76.63;28.38;;;;;;;4.09;93.39;102925.09;7396062;19;20021;-62
2022/01/15 07:31:13;;;;;;;90.68;29.88;;;;;;;4.05;93.68;102918.09;7392983;19;20036;-64
2022/01/15 07:33:42;;;;;;;126.40;32.85;;;;;;;4.05;93.81;102925.03;7396717;19;20029;-64
2022/01/15 07:36:14;;;;;;;84.95;30.30;;;;;;;4.09;93.98;102919.91;7393347;19;20130;-64
2022/01/15 07:38:43;;;;;;;76.00;31.02;;;;;;;4.10;93.97;102915.63;7395029;19;20028;-64
2022/01/15 07:41:13;;;;;;;83.28;31.25;;;;;;;4.02;94.02;102915.47;7391995;19;20490;-64
2022/01/15 07:43:42;;;;;;;95.80;34.08;;;;;;;3.99;94.26;102918.88;7395082;19;20030;-63
2022/01/15 07:46:12;;;;;;;81.90;32.47;;;;;;;4.03;94.20;102917.22;7397394;19;20011;-63
2022/01/15 07:48:41;;;;;;;81.13;32.22;;;;;;;4.09;94.24;102916.47;7394273;19;20007;-64
2022/01/15 07:51:10;;;;;;;76.10;32.47;;;;;;;4.12;94.39;102919.09;7392106;19;20367;-64
2022/01/15 07:53:41;;;;;;;95.30;35.38;;;;;;;4.19;94.21;102920.06;7391418;19;20417;-64
2022/01/15 07:56:10;;;;;;;147.57;35.95;;;;;;;4.17;94.07;102920.06;7393485;19;20873;-64
2022/01/15 07:58:39;;;;;;;96.78;32.55;;;;;;;4.15;93.92;102919.13;7394241;19;20498;-64
2022/01/15 08:01:08;;;;;;;85.25;32.92;;;;;;;4.11;93.90;102923.41;7391803;19;20017;-64
2022/01/15 08:03:37;;;;;;;79.72;33.58;;;;;;;4.12;94.18;102925.16;7390337;19;20014;-63
2022/01/15 08:06:06;;;;;;;78.55;33.45;;;;;;;4.16;94.24;102921.75;7392475;19;20019;-65
2022/01/15 08:08:35;;;;;;;77.65;33.05;;;;;;;4.19;94.11;102920.94;7391833;19;20086;-64
2022/01/15 08:11:07;;;;;;;85.00;35.47;;;;;;;4.15;93.98;102916.53;7392026;19;20025;-64
2022/01/15 08:13:36;;;;;;;85.07;35.67;;;;;;;4.24;93.97;102905.44;7394472;19;20027;-63
2022/01/15 08:16:07;;;;;;;103.00;39.03;;;;;;;4.25;93.82;102912.38;7391473;19;20018;-64
2022/01/15 08:18:36;;;;;;;93.50;37.25;;;;;;;4.26;93.78;102908.94;7391994;19;20078;-64
2022/01/15 08:21:05;;;;;;;95.40;38.78;;;;;;;4.19;93.80;102914.88;7393394;19;20757;-64
2022/01/15 08:23:35;;;;;;;135.18;38.55;;;;;;;4.14;93.88;102913.09;7393591;19;20010;-64
2022/01/15 08:26:07;;;;;;;96.95;36.88;;;;;;;4.13;93.78;102903.56;7392859;19;20015;-64
2022/01/15 08:28:37;;;;;;;87.82;34.63;;;;;;;4.09;93.77;102909.53;7392614;19;20046;-65
2022/01/15 08:31:06;;;;;;;100.45;36.72;;;;;;;4.08;93.68;102912.09;7392806;19;20022;-64
2022/01/15 08:33:35;;;;;;;184.88;44.15;;;;;;;3.99;93.69;102905.03;7393422;19;20052;-64
2022/01/15 08:36:05;;;;;;;119.50;39.38;;;;;;;4.02;93.98;102904.22;7392369;19;20483;-64
2022/01/15 08:38:33;;;;;;;106.60;38.33;;;;;;;4.07;94.08;102903.47;7392303;19;20022;-64
2022/01/15 08:41:02;;;;;;;113.97;39.63;;;;;;;4.16;94.04;102897.53;7390776;19;20375;-64
2022/01/15 08:43:33;;;;;;;105.60;38.05;;;;;;;4.20;94.00;102891.56;7395203;19;20046;-64
2022/01/15 08:46:02;;;;;;;104.82;38.65;;;;;;;4.26;94.08;102895.97;7393468;19;20010;-64
2022/01/15 08:48:31;;;;;;;115.63;39.75;;;;;;;4.28;94.01;102889.97;7395482;19;20017;-64
2022/01/15 08:51:00;;;;;;;150.93;42.47;;;;;;;4.31;94.07;102886.53;7391715;19;20074;-64
2022/01/15 08:53:29;;;;;;;121.35;42.50;;;;;;;4.31;93.88;102887.41;7392831;19;20343;-64
2022/01/15 08:55:58;;;;;;;118.47;42.83;;;;;;;4.32;93.86;102894.31;7393607;19;20021;-64
2022/01/15 08:58:27;;;;;;;117.03;41.28;;;;;;;4.30;93.90;102885.66;7392758;19;20032;-64
2022/01/15 09:00:59;;;;;;;106.10;40.22;;;;;;;4.32;93.85;102888.28;7392735;19;20010;-62
2022/01/15 09:03:28;;;;;;;116.05;39.58;;;;;;;4.23;93.69;102885.56;7394000;19;20017;-64
2022/01/15 09:05:56;;;;;;;146.40;42.47;;;;;;;4.20;93.71;102886.38;7391964;19;20015;-64
2022/01/15 09:08:28;;;;;;;167.65;43.10;;;;;;;4.21;93.93;102887.22;7392242;19;20009;-64
2022/01/15 09:10:58;;;;;;;97.47;36.40;;;;;;;4.14;93.99;102891.44;7390910;19;20377;-64
2022/01/15 09:13:27;;;;;;;142.00;40.83;;;;;;;4.14;93.93;102888.84;7391752;19;20033;-64
2022/01/15 09:15:58;;;;;;;141.63;40.65;;;;;;;4.12;93.95;102890.56;7389778;19;20066;-63
2022/01/15 09:18:27;;;;;;;191.52;43.08;;;;;;;4.07;94.21;102889.59;7392083;19;20019;-63
2022/01/15 09:20:56;;;;;;;106.80;38.88;;;;;;;4.04;94.21;102897.34;7389808;19;20030;-63
2022/01/15 09:23:25;;;;;;;146.93;42.05;;;;;;;4.07;94.01;102884.41;7392177;19;20010;-62
2022/01/15 09:25:53;;;;;;;108.68;40.50;;;;;;;4.04;94.40;102885.25;7393462;19;20007;-64
2022/01/15 09:31:06;;;;;;;109.40;40.83;;;;;;;4.14;94.58;102886.25;7388999;19;20459;-63
2022/01/15 09:33:35;;;;;;;150.00;45.05;;;;;;;4.20;94.86;102885.47;7390651;19;20371;-62
2022/01/15 09:36:05;;;;;;;110.07;40.67;;;;;;;4.23;95.05;102877.75;7390688;19;20021;-64
2022/01/15 09:38:34;;;;;;;149.25;40.17;;;;;;;4.26;94.60;102877.81;7391653;19;20078;-62
2022/01/15 09:41:03;;;;;;;101.20;39.15;;;;;;;4.21;94.43;102876.84;7390207;19;20024;-64
2022/01/15 09:43:32;;;;;;;98.47;36.58;;;;;;;4.20;94.51;102878.59;7391568;19;20006;-63
2022/01/15 09:46:02;;;;;;;102.07;36.83;;;;;;;4.21;94.30;102875.13;7388546;19;20011;-64
2022/01/15 09:48:34;;;;;;;103.55;37.28;;;;;;;4.23;94.33;102872.56;7390599;19;20010;-64
2022/01/15 09:51:03;;;;;;;116.35;38.97;;;;;;;4.18;94.29;102874.22;7389439;19;20007;-64
2022/01/15 09:53:31;;;;;;;93.82;36.05;;;;;;;4.21;94.48;102872.53;7390437;19;20725;-64
2022/01/15 09:56:00;;;;;;;108.75;37.75;;;;;;;4.29;94.34;102875.25;7389715;19;20477;-64
2022/01/15 09:58:29;;;;;;;99.03;37.10;;;;;;;4.35;94.42;102864.09;7390760;19;20401;-64
2022/01/15 10:00:58;;;;;;;129.13;37.40;;;;;;;4.38;94.37;102874.50;7387975;19;20384;-63
2022/01/15 10:03:27;;;;;;;85.57;34.13;;;;;;;4.31;94.06;102870.94;7389995;19;20013;-64
2022/01/15 10:05:58;;;;;;;80.30;32.83;;;;;;;4.29;93.78;102870.06;7387337;19;20399;-64
2022/01/15 10:08:28;;;;;;;81.88;31.90;;;;;;;4.27;93.71;102864.84;7389741;19;20014;-63
2022/01/15 10:10:58;;;;;;;99.90;32.95;;;;;;;4.20;93.80;102867.31;7387970;19;20478;-63
2022/01/15 10:13:29;;;;;;;146.73;35.85;;;;;;;4.17;93.83;102862.97;7389865;19;20010;-64
2022/01/15 10:16:17;;;;;;;101.20;34.15;;;;;;;4.19;94.02;102874.22;7390277;19;20332;-64
2022/01/15 10:18:48;;;;;;;76.95;32.55;;;;;;;4.15;94.10;102868.16;7390372;19;20038;-63
2022/01/15 10:21:23;;;;;;;83.60;34.17;;;;;;;4.21;94.26;102864.72;7388886;19;20033;-63
2022/01/15 10:23:54;;;;;;;123.93;35.72;;;;;;;4.16;94.42;102862.06;7390607;19;20011;-64
2022/01/15 10:26:24;;;;;;;81.65;33.20;;;;;;;4.19;94.15;102863.84;7392570;19;20024;-63
2022/01/15 10:28:56;;;;;;;87.53;34.92;;;;;;;4.20;93.98;102856.94;7398087;19;20329;-64
2022/01/15 10:31:26;;;;;;;89.63;34.95;;;;;;;4.21;94.14;102864.72;7395325;19;20527;-64
2022/01/15 10:33:56;;;;;;;87.57;35.15;;;;;;;4.24;94.06;102856.13;7398578;19;20501;-64
2022/01/15 10:36:29;;;;;;;81.45;33.28;;;;;;;4.24;94.22;102859.63;7393729;19;20025;-63
2022/01/15 10:39:14;;;;;;;73.18;31.13;;;;;;;4.19;94.13;102861.25;7397173;19;20018;-63
2022/01/15 10:41:44;;;;;;;129.65;35.72;;;;;;;4.18;94.18;102856.91;7397029;19;20021;-64
2022/01/15 10:44:32;;;;;;;86.13;33.58;;;;;;;4.23;94.26;102850.09;7397650;19;20019;-63
2022/01/15 10:47:06;;;;;;;72.75;30.52;;;;;;;4.27;94.50;102859.66;7396359;19;20017;-65
2022/01/15 10:49:35;;;;;;;86.88;33.75;;;;;;;4.30;94.42;102849.31;7396515;19;20015;-64
2022/01/15 10:52:13;;;;;;;81.72;31.83;;;;;;;4.38;94.41;102848.56;7395737;19;20052;-64
2022/01/15 10:54:54;;;;;;;80.20;34.05;;;;;;;4.38;94.12;102861.53;7396962;19;20363;-64
2022/01/15 10:57:25;;;;;;;89.28;34.83;;;;;;;4.29;93.64;102850.16;7395435;19;20081;-64
2022/01/15 11:00:02;;;;;;;88.13;32.78;;;;;;;4.27;93.43;102838.00;7395486;19;20019;-64
2022/01/15 11:02:31;;;;;;;75.25;29.88;;;;;;;4.19;93.41;102843.09;7396612;19;20014;-64
2022/01/15 11:05:00;;;;;;;78.53;30.08;;;;;;;4.27;93.62;102835.41;7395253;19;20018;-64
2022/01/15 11:07:38;;;;;;;75.07;31.25;;;;;;;4.31;93.70;102829.41;7395476;19;20014;-64
2022/01/15 11:10:09;;;;;;;89.80;32.95;;;;;;;4.40;93.58;102828.69;7396531;19;20029;-64
2022/01/15 11:12:39;;;;;;;86.32;33.40;;;;;;;4.42;93.49;102827.84;7396764;19;20025;-65
2022/01/15 11:15:09;;;;;;;77.82;31.00;;;;;;;4.39;93.27;102830.41;7397987;19;20018;-64
2022/01/15 11:17:39;;;;;;;66.30;28.70;;;;;;;4.43;93.04;102823.56;7395496;19;20018;-63
2022/01/15 11:20:09;;;;;;;61.45;27.70;;;;;;;4.30;92.66;102817.31;7392508;19;20021;-64
2022/01/15 11:22:43;;;;;;;62.40;28.40;;;;;;;4.33;92.39;102817.34;7396275;19;20547;-63
2022/01/15 11:25:15;;;;;;;111.28;32.92;;;;;;;4.30;92.50;102810.41;7395448;19;20375;-63
2022/01/15 11:27:44;;;;;;;79.90;32.70;;;;;;;4.28;92.40;102808.63;7394915;19;20014;-63
2022/01/15 11:30:14;;;;;;;118.70;36.13;;;;;;;4.29;92.49;102807.78;7396243;19;20019;-63
2022/01/15 11:32:45;;;;;;;95.72;34.28;;;;;;;4.28;92.39;102796.53;7395726;19;20134;-62
2022/01/15 11:35:14;;;;;;;106.05;33.88;;;;;;;4.27;92.31;102799.97;7395736;19;20149;-64
2022/01/15 11:37:49;;;;;;;90.22;31.88;;;;;;;4.22;92.61;102793.84;7393542;19;20021;-64
2022/01/15 11:40:43;;;;;;;94.93;31.23;;;;;;;4.15;92.25;102789.41;7393241;19;20010;-64
2022/01/15 11:43:39;;;;;;;80.95;33.60;;;;;;;4.11;92.58;102780.72;7394838;19;20403;-63
2022/01/15 11:46:24;;;;;;;75.75;30.65;;;;;;;4.15;92.71;102782.53;7392016;19;20180;-63
2022/01/15 11:48:53;;;;;;;89.00;33.05;;;;;;;4.15;92.87;102797.19;7393734;19;20137;-63
2022/01/15 11:51:29;;;;;;;78.97;30.95;;;;;;;4.17;92.51;102800.69;7391117;19;20024;-63
2022/01/15 11:54:01;;;;;;;68.13;29.27;;;;;;;4.14;92.55;102795.44;7393780;19;20017;-65